Time;durP1;ratioP1;P1;durP2;ratioP2;P2;SDS_P1;SDS_P2;PMS_P1;PMS_P2;Temp;Humidity;BMP_temperature;BMP_pressure;BME280_temperature;BME280_humidity;BME280_pressure;Samples;Min_cycle;Max_cycle;Signal;HPM_P1;HPM_P2
2022/01/28 00:01:06;;;;;;;31.05;5.60;;;;;;;;;;5014446;28;20131;-87
2022/01/28 00:03:34;;;;;;;25.75;3.83;;;;;;;;;;4965051;28;20038;-89
2022/01/28 00:06:00;;;;;;;30.48;4.32;;;;;;;;;;4999146;28;20046;-89
2022/01/28 00:08:26;;;;;;;31.85;4.32;;;;;;;;;;4992865;28;20042;-90
2022/01/28 00:10:53;;;;;;;34.60;5.38;;;;;;;;;;4975440;28;20077;-86
2022/01/28 00:13:26;;;;;;;34.70;5.72;;;;;;;;;;4984046;28;20042;-89
2022/01/28 00:16:12;;;;;;;32.63;4.20;;;;;;;;;;4989000;28;20054;-88
2022/01/28 00:40:25;;;;;;;28.73;4.05;;;;;;;;;;4989250;28;20046;-89
2022/01/28 00:42:51;;;;;;;21.95;3.72;;;;;;;;;;4998401;28;20049;-90
2022/01/28 00:45:17;;;;;;;31.42;4.45;;;;;;;;;;5010276;28;20073;-88
2022/01/28 00:47:44;;;;;;;31.80;5.40;;;;;;;;;;4983233;28;20545;-88
2022/01/28 00:50:10;;;;;;;24.80;4.43;;;;;;;;;;5001751;28;20075;-88
2022/01/28 00:52:36;;;;;;;14.10;2.78;;;;;;;;;;4983769;28;20110;-87
2022/01/28 00:55:03;;;;;;;15.52;2.88;;;;;;;;;;4984753;28;20050;-89
2022/01/28 00:57:29;;;;;;;28.30;4.38;;;;;;;;;;4999846;28;20077;-89
2022/01/28 00:59:55;;;;;;;26.90;5.30;;;;;;;;;;5006558;28;20053;-87
2022/01/28 01:02:21;;;;;;;26.20;4.72;;;;;;;;;;5003867;28;20105;-89
2022/01/28 01:05:06;;;;;;;25.77;4.43;;;;;;;;;;5019251;28;20042;-87
2022/01/28 01:07:32;;;;;;;23.15;3.72;;;;;;;;;;4980788;28;20084;-90
2022/01/28 01:09:58;;;;;;;30.17;4.20;;;;;;;;;;4971298;28;20107;-88
2022/01/28 01:12:26;;;;;;;37.25;6.05;;;;;;;;;;4985816;28;20509;-85
2022/01/28 01:14:53;;;;;;;50.63;5.90;;;;;;;;;;4996100;28;20054;-87
2022/01/28 01:19:52;;;;;;;32.33;6.63;;;;;;;;;;4994463;28;20391;-89
2022/01/28 01:22:19;;;;;;;32.45;5.80;;;;;;;;;;4970277;28;20056;-90
2022/01/28 01:24:51;;;;;;;42.35;5.65;;;;;;;;;;4971852;28;20038;-90
2022/01/28 01:27:19;;;;;;;41.90;5.57;;;;;;;;;;4968231;28;20045;-90
2022/01/28 01:29:46;;;;;;;41.85;6.80;;;;;;;;;;4973809;28;20398;-88
2022/01/28 01:32:15;;;;;;;21.50;4.70;;;;;;;;;;4969518;28;20043;-87
2022/01/28 01:34:42;;;;;;;29.42;3.92;;;;;;;;;;4971986;28;20353;-89
2022/01/28 01:37:12;;;;;;;26.52;4.75;;;;;;;;;;4972536;28;20042;-86
2022/01/28 01:39:40;;;;;;;23.20;3.33;;;;;;;;;;4988966;28;20042;-85
2022/01/28 01:42:26;;;;;;;30.05;3.80;;;;;;;;;;4968438;28;20048;-87
2022/01/28 01:53:05;;;;;;;28.00;4.95;;;;;;;;;;4998707;28;20086;-88
2022/01/28 01:55:32;;;;;;;21.30;4.47;;;;;;;;;;4959205;28;20076;-90
2022/01/28 01:58:04;;;;;;;33.90;5.15;;;;;;;;;;4993934;28;20045;-91
2022/01/28 02:00:30;;;;;;;30.90;4.80;;;;;;;;;;4971130;28;20042;-92
2022/01/28 02:02:56;;;;;;;25.48;5.32;;;;;;;;;;5006580;28;20046;-90
2022/01/28 02:05:22;;;;;;;28.65;4.20;;;;;;;;;;4974132;28;20117;-92
2022/01/28 02:07:48;;;;;;;29.83;4.05;;;;;;;;;;4970493;28;20460;-90
2022/01/28 02:10:15;;;;;;;35.13;5.15;;;;;;;;;;4974085;28;20081;-88
2022/01/28 02:12:44;;;;;;;34.85;6.15;;;;;;;;;;5001284;28;20563;-90
2022/01/28 02:15:10;;;;;;;24.80;4.18;;;;;;;;;;4989735;28;20405;-86
2022/01/28 02:17:36;;;;;;;37.15;4.68;;;;;;;;;;4991415;28;20042;-90
2022/01/28 02:20:02;;;;;;;25.25;4.38;;;;;;;;;;4956605;28;20144;-90
2022/01/28 02:22:28;;;;;;;26.25;4.38;;;;;;;;;;4967297;28;20038;-85
2022/01/28 02:24:54;;;;;;;27.02;5.93;;;;;;;;;;4968211;28;20384;-90
2022/01/28 02:27:20;;;;;;;34.20;4.90;;;;;;;;;;4979601;28;20038;-91
2022/01/28 02:29:49;;;;;;;28.77;4.53;;;;;;;;;;4985312;28;20058;-89
2022/01/28 02:32:15;;;;;;;30.83;5.40;;;;;;;;;;4997372;28;20050;-91
2022/01/28 02:34:41;;;;;;;44.30;8.02;;;;;;;;;;4981723;28;20050;-90
2022/01/28 02:37:08;;;;;;;33.95;5.38;;;;;;;;;;4986440;28;20413;-89
2022/01/28 02:39:34;;;;;;;38.03;5.93;;;;;;;;;;4976120;28;20367;-88
2022/01/28 02:42:32;;;;;;;32.17;5.07;;;;;;;;;;4969905;28;20145;-88
2022/01/28 02:44:53;;;;;;;22.83;4.03;;;;;;;;;;4979665;28;20129;-88
2022/01/28 02:47:31;;;;;;;24.45;5.03;;;;;;;;;;4981638;28;20046;-89
2022/01/28 02:49:57;;;;;;;25.88;3.92;;;;;;;;;;4972226;28;20042;-91
2022/01/28 02:52:34;;;;;;;18.77;4.13;;;;;;;;;;4982605;28;20046;-89
2022/01/28 02:55:04;;;;;;;31.73;4.18;;;;;;;;;;4985332;28;20501;-90
2022/01/28 02:57:32;;;;;;;21.40;3.70;;;;;;;;;;4993442;28;20566;-88
2022/01/28 02:59:58;;;;;;;27.25;4.03;;;;;;;;;;4980018;28;20045;-88
2022/01/28 03:02:24;;;;;;;29.70;4.75;;;;;;;;;;4979820;28;20038;-90
2022/01/28 03:07:34;;;;;;;30.48;4.22;;;;;;;;;;4971092;28;20038;-91
2022/01/28 03:12:37;;;;;;;21.13;3.80;;;;;;;;;;4997512;28;20039;-86
2022/01/28 03:15:06;;;;;;;21.83;3.10;;;;;;;;;;4976053;28;20054;-92
2022/01/28 03:20:17;;;;;;;25.92;4.05;;;;;;;;;;4969981;28;20674;-91
2022/01/28 03:22:43;;;;;;;24.55;4.40;;;;;;;;;;4971980;28;20058;-90
2022/01/28 03:25:09;;;;;;;26.88;4.03;;;;;;;;;;4986434;28;20046;-92
2022/01/28 03:27:49;;;;;;;19.20;3.60;;;;;;;;;;4984905;28;20066;-88
2022/01/28 03:30:16;;;;;;;19.73;3.80;;;;;;;;;;4970943;28;20070;-87
2022/01/28 03:32:42;;;;;;;28.73;5.07;;;;;;;;;;4981587;28;20062;-89
2022/01/28 03:35:10;;;;;;;23.70;4.32;;;;;;;;;;4970113;28;20054;-88
2022/01/28 03:37:36;;;;;;;27.95;4.10;;;;;;;;;;4967448;28;20438;-90
2022/01/28 03:40:04;;;;;;;25.58;4.22;;;;;;;;;;4963165;28;20046;-87
2022/01/28 03:42:31;;;;;;;27.13;4.30;;;;;;;;;;4992980;28;20046;-89
2022/01/28 03:44:57;;;;;;;27.80;4.18;;;;;;;;;;4979870;28;20097;-90
2022/01/28 03:47:23;;;;;;;24.05;6.00;;;;;;;;;;4985456;28;20430;-90
2022/01/28 03:49:49;;;;;;;22.70;4.18;;;;;;;;;;4979869;28;20038;-90
2022/01/28 03:52:15;;;;;;;36.55;4.60;;;;;;;;;;4967443;28;20046;-88
2022/01/28 03:54:41;;;;;;;29.73;5.35;;;;;;;;;;4978617;28;20043;-86
2022/01/28 03:57:07;;;;;;;32.22;4.60;;;;;;;;;;4976680;28;20078;-85
2022/01/28 03:59:34;;;;;;;35.72;5.18;;;;;;;;;;4982236;28;20391;-88
2022/01/28 04:02:00;;;;;;;32.65;4.35;;;;;;;;;;4981889;28;20129;-89
2022/01/28 04:12:27;;;;;;;31.73;4.90;;;;;;;;;;4978617;28;20077;-88
2022/01/28 04:17:38;;;;;;;38.17;6.25;;;;;;;;;;4982395;28;20137;-88
2022/01/28 04:20:04;;;;;;;40.75;5.15;;;;;;;;;;4983308;28;20053;-90
2022/01/28 04:22:30;;;;;;;40.50;5.85;;;;;;;;;;4977636;28;20042;-89
2022/01/28 04:24:56;;;;;;;32.20;5.07;;;;;;;;;;4982782;28;20046;-86
2022/01/28 04:27:22;;;;;;;25.67;4.18;;;;;;;;;;4975687;28;20496;-90
2022/01/28 04:29:48;;;;;;;16.90;3.38;;;;;;;;;;4982451;28;20046;-90
2022/01/28 04:32:14;;;;;;;27.83;3.97;;;;;;;;;;4983856;28;20141;-86
2022/01/28 04:34:41;;;;;;;27.52;4.07;;;;;;;;;;4979769;28;20049;-87
2022/01/28 04:42:14;;;;;;;33.70;5.03;;;;;;;;;;4966969;28;20054;-90
2022/01/28 04:58:21;;;;;;;31.92;4.75;;;;;;;;;;5003479;28;20047;-92
2022/01/28 05:01:11;;;;;;;29.25;5.07;;;;;;;;;;4978227;28;20050;-90
2022/01/28 05:16:59;;;;;;;33.92;4.65;;;;;;;;;;4991424;28;20081;-90
2022/01/28 05:27:29;;;;;;;36.75;5.93;;;;;;;;;;4986309;28;19928;-91
2022/01/28 05:29:55;;;;;;;19.75;3.35;;;;;;;;;;4980663;28;20572;-88
2022/01/28 05:32:21;;;;;;;20.30;3.67;;;;;;;;;;4981229;28;20395;-88
2022/01/28 05:34:47;;;;;;;24.52;3.97;;;;;;;;;;4983431;28;20078;-90
2022/01/28 05:37:13;;;;;;;28.75;5.65;;;;;;;;;;4987793;28;20049;-90
2022/01/28 05:39:39;;;;;;;27.02;5.47;;;;;;;;;;5013458;28;20129;-89
2022/01/28 05:42:05;;;;;;;33.63;5.20;;;;;;;;;;4985771;28;20470;-90
2022/01/28 05:44:31;;;;;;;36.10;4.82;;;;;;;;;;4977557;28;20421;-91
2022/01/28 05:47:02;;;;;;;43.08;5.75;;;;;;;;;;4976723;28;20134;-91
2022/01/28 05:49:28;;;;;;;36.33;5.10;;;;;;;;;;4982592;28;20668;-89
2022/01/28 05:51:54;;;;;;;26.08;5.38;;;;;;;;;;4965028;28;20537;-91
2022/01/28 05:54:20;;;;;;;44.10;7.07;;;;;;;;;;4985027;28;20058;-90
2022/01/28 05:56:46;;;;;;;33.10;5.22;;;;;;;;;;4964442;28;20125;-89
2022/01/28 05:59:13;;;;;;;38.90;5.38;;;;;;;;;;4974116;28;20030;-90
2022/01/28 06:01:39;;;;;;;41.13;5.93;;;;;;;;;;4982857;28;20046;-90
2022/01/28 06:04:05;;;;;;;38.00;6.13;;;;;;;;;;4972996;28;20077;-89
2022/01/28 06:06:32;;;;;;;41.38;6.57;;;;;;;;;;4988570;28;20049;-86
2022/01/28 06:09:02;;;;;;;34.13;5.72;;;;;;;;;;4983994;28;20105;-91
2022/01/28 06:11:31;;;;;;;28.75;5.20;;;;;;;;;;4970211;28;20061;-91
2022/01/28 06:13:57;;;;;;;32.22;5.47;;;;;;;;;;4987052;28;20092;-92
2022/01/28 06:16:23;;;;;;;32.75;4.95;;;;;;;;;;4967720;28;20406;-92
2022/01/28 06:18:49;;;;;;;28.63;5.18;;;;;;;;;;4981009;28;20054;-85
2022/01/28 06:21:16;;;;;;;30.95;4.78;;;;;;;;;;4992362;28;20038;-91
2022/01/28 06:23:42;;;;;;;25.42;5.05;;;;;;;;;;4989429;28;20046;-88
2022/01/28 06:26:08;;;;;;;21.92;3.70;;;;;;;;;;4988133;28;20501;-91
2022/01/28 06:28:35;;;;;;;27.50;4.95;;;;;;;;;;4967897;28;20085;-90
2022/01/28 06:31:01;;;;;;;28.63;3.78;;;;;;;;;;4980403;28;20054;-90
2022/01/28 06:33:27;;;;;;;22.35;3.92;;;;;;;;;;4985726;28;20050;-88
2022/01/28 06:35:53;;;;;;;20.27;3.92;;;;;;;;;;4991942;28;20360;-87
2022/01/28 06:38:20;;;;;;;26.27;4.05;;;;;;;;;;4981290;28;20043;-90
2022/01/28 06:40:46;;;;;;;21.20;3.42;;;;;;;;;;4980680;28;20042;-87
2022/01/28 06:43:12;;;;;;;28.20;4.18;;;;;;;;;;4966649;28;20042;-91
2022/01/28 06:45:41;;;;;;;36.20;4.47;;;;;;;;;;4985753;28;20050;-90
2022/01/28 06:48:10;;;;;;;23.30;3.90;;;;;;;;;;4981733;28;20047;-87
2022/01/28 06:50:36;;;;;;;25.58;4.28;;;;;;;;;;4970370;28;20046;-92
2022/01/28 06:53:02;;;;;;;23.50;4.45;;;;;;;;;;4981017;28;20533;-91
2022/01/28 06:55:33;;;;;;;27.50;4.68;;;;;;;;;;4977048;28;20097;-91
2022/01/28 06:57:59;;;;;;;31.45;3.95;;;;;;;;;;4977300;28;20548;-91
2022/01/28 07:00:25;;;;;;;33.38;4.72;;;;;;;;;;4975416;28;20082;-90
2022/01/28 07:02:51;;;;;;;25.88;4.03;;;;;;;;;;4986329;28;20042;-88
2022/01/28 07:05:18;;;;;;;27.90;3.55;;;;;;;;;;4976742;28;20487;-92
2022/01/28 07:07:46;;;;;;;28.02;4.80;;;;;;;;;;4984362;28;20042;-89
2022/01/28 07:10:27;;;;;;;26.20;4.65;;;;;;;;;;4989421;28;20511;-91
2022/01/28 07:13:09;;;;;;;29.23;4.57;;;;;;;;;;4989456;28;20419;-89
2022/01/28 07:15:35;;;;;;;39.08;3.92;;;;;;;;;;4982395;28;20046;-92
2022/01/28 07:18:03;;;;;;;22.13;4.38;;;;;;;;;;4984566;28;20038;-94
2022/01/28 07:20:33;;;;;;;32.75;4.75;;;;;;;;;;4990089;28;20058;-92
2022/01/28 07:22:59;;;;;;;32.33;4.53;;;;;;;;;;4979675;28;20042;-89
2022/01/28 07:25:28;;;;;;;23.52;4.03;;;;;;;;;;4979149;28;20463;-93
2022/01/28 07:27:54;;;;;;;28.08;4.50;;;;;;;;;;4942161;28;20043;-91
2022/01/28 07:30:20;;;;;;;29.98;4.20;;;;;;;;;;4976658;28;20051;-92
2022/01/28 07:32:49;;;;;;;28.98;4.88;;;;;;;;;;4967295;28;20047;-92
2022/01/28 07:35:15;;;;;;;30.15;4.65;;;;;;;;;;4952477;28;20101;-92
2022/01/28 07:37:45;;;;;;;27.95;3.90;;;;;;;;;;4988068;28;20074;-93
2022/01/28 07:40:19;;;;;;;26.10;4.22;;;;;;;;;;4997512;28;20423;-91
2022/01/28 07:42:45;;;;;;;27.50;4.13;;;;;;;;;;4986875;28;20050;-89
2022/01/28 07:45:24;;;;;;;33.47;4.78;;;;;;;;;;4980336;28;20162;-90
2022/01/28 07:47:51;;;;;;;33.45;5.53;;;;;;;;;;4969605;28;20518;-92
2022/01/28 07:50:18;;;;;;;32.28;4.05;;;;;;;;;;4975700;28;20680;-92
2022/01/28 07:52:44;;;;;;;28.23;4.53;;;;;;;;;;4977318;28;20034;-88
2022/01/28 07:55:12;;;;;;;37.08;4.40;;;;;;;;;;4976686;28;20046;-92
2022/01/28 07:57:38;;;;;;;39.65;6.25;;;;;;;;;;4980206;28;20070;-91
2022/01/28 08:00:06;;;;;;;29.38;5.35;;;;;;;;;;4954042;28;20519;-87
2022/01/28 08:02:32;;;;;;;43.72;5.57;;;;;;;;;;4948373;28;20049;-88
2022/01/28 08:04:58;;;;;;;30.85;5.72;;;;;;;;;;4962681;28;20039;-88
2022/01/28 08:07:24;;;;;;;35.25;4.68;;;;;;;;;;4984415;28;20104;-90
2022/01/28 08:09:50;;;;;;;26.85;4.68;;;;;;;;;;4954727;28;20498;-86
2022/01/28 08:12:16;;;;;;;34.30;5.07;;;;;;;;;;4970638;28;20046;-88
2022/01/28 08:14:42;;;;;;;47.47;5.65;;;;;;;;;;5004800;28;20057;-85
2022/01/28 08:17:09;;;;;;;36.53;5.70;;;;;;;;;;4985470;28;20046;-85
2022/01/28 08:19:35;;;;;;;25.35;5.32;;;;;;;;;;4969068;28;20161;-86
2022/01/28 08:22:01;;;;;;;32.70;4.57;;;;;;;;;;4969501;28;20046;-87
2022/01/28 08:24:27;;;;;;;28.88;4.72;;;;;;;;;;4983338;28;20064;-86
2022/01/28 08:26:53;;;;;;;32.50;4.10;;;;;;;;;;4999519;28;20057;-85
2022/01/28 08:29:19;;;;;;;32.70;5.18;;;;;;;;;;4985933;28;20482;-87
2022/01/28 08:31:45;;;;;;;29.65;4.80;;;;;;;;;;4984051;28;20062;-88
2022/01/28 08:34:11;;;;;;;26.05;4.00;;;;;;;;;;5000838;28;20113;-85
2022/01/28 08:36:37;;;;;;;26.63;4.13;;;;;;;;;;4948205;28;20042;-85
2022/01/28 08:39:05;;;;;;;30.85;4.35;;;;;;;;;;4995678;28;20042;-86
2022/01/28 08:41:32;;;;;;;29.38;4.30;;;;;;;;;;4987785;28;20133;-86
2022/01/28 08:43:58;;;;;;;37.58;5.85;;;;;;;;;;4987380;28;20050;-86
2022/01/28 08:46:24;;;;;;;30.80;4.75;;;;;;;;;;4985973;28;20125;-87
2022/01/28 08:48:50;;;;;;;30.33;5.07;;;;;;;;;;4976147;28;20104;-87
2022/01/28 08:51:17;;;;;;;41.17;5.68;;;;;;;;;;4967867;28;20066;-85
2022/01/28 08:53:43;;;;;;;37.28;4.55;;;;;;;;;;4972672;28;20061;-85
2022/01/28 08:56:09;;;;;;;43.28;4.68;;;;;;;;;;4974012;28;20506;-87
2022/01/28 08:58:36;;;;;;;28.25;5.00;;;;;;;;;;4980732;28;20054;-90
2022/01/28 09:01:02;;;;;;;35.88;5.57;;;;;;;;;;4962744;28;20046;-86
2022/01/28 09:03:28;;;;;;;37.00;6.00;;;;;;;;;;4982906;28;20035;-89
2022/01/28 09:05:54;;;;;;;26.73;5.22;;;;;;;;;;4973659;28;20442;-89
2022/01/28 09:08:20;;;;;;;43.53;5.45;;;;;;;;;;4970849;28;20061;-87
2022/01/28 09:10:57;;;;;;;31.77;4.57;;;;;;;;;;4973276;28;20096;-88
2022/01/28 09:13:26;;;;;;;34.00;4.80;;;;;;;;;;4971836;28;20042;-87
2022/01/28 09:15:57;;;;;;;43.42;5.78;;;;;;;;;;5002115;28;20045;-86
2022/01/28 09:18:24;;;;;;;36.40;5.05;;;;;;;;;;4990109;28;20062;-87
2022/01/28 09:20:50;;;;;;;32.70;4.45;;;;;;;;;;4970983;28;20050;-88
2022/01/28 09:23:17;;;;;;;32.75;5.40;;;;;;;;;;4995394;28;20053;-91
2022/01/28 09:25:43;;;;;;;43.95;4.82;;;;;;;;;;4984891;28;20030;-91
2022/01/28 09:28:10;;;;;;;29.55;4.72;;;;;;;;;;5007176;28;20050;-89
2022/01/28 09:30:36;;;;;;;35.83;5.03;;;;;;;;;;4991227;28;20046;-87
2022/01/28 09:33:03;;;;;;;32.15;4.65;;;;;;;;;;4992249;28;20057;-89
2022/01/28 09:35:29;;;;;;;30.38;4.57;;;;;;;;;;5007987;28;20049;-85
2022/01/28 09:37:55;;;;;;;30.13;4.97;;;;;;;;;;5001325;28;20156;-90
2022/01/28 09:40:21;;;;;;;33.58;4.78;;;;;;;;;;4991064;28;20133;-88
2022/01/28 09:42:49;;;;;;;31.60;4.90;;;;;;;;;;5007834;28;20065;-85
2022/01/28 09:45:16;;;;;;;28.42;5.25;;;;;;;;;;5008480;28;20165;-85
2022/01/28 09:47:42;;;;;;;36.35;5.57;;;;;;;;;;4989623;28;20046;-86
2022/01/28 09:50:09;;;;;;;24.88;4.40;;;;;;;;;;4989575;28;20505;-87
2022/01/28 09:52:35;;;;;;;38.78;5.05;;;;;;;;;;4988682;28;20053;-88
2022/01/28 09:55:02;;;;;;;30.55;5.05;;;;;;;;;;5009029;28;20058;-83
2022/01/28 09:57:28;;;;;;;33.20;5.53;;;;;;;;;;5003435;28;20585;-89
2022/01/28 09:59:54;;;;;;;34.25;5.05;;;;;;;;;;4991503;28;20053;-85
2022/01/28 10:02:20;;;;;;;28.77;4.38;;;;;;;;;;4986549;28;20042;-84
2022/01/28 10:04:46;;;;;;;33.00;4.60;;;;;;;;;;5000647;28;20520;-90
2022/01/28 10:07:13;;;;;;;21.90;4.07;;;;;;;;;;5007838;28;20080;-84
2022/01/28 10:10:01;;;;;;;33.45;4.35;;;;;;;;;;4972145;28;20592;-89
2022/01/28 10:12:43;;;;;;;30.17;4.75;;;;;;;;;;4990631;28;20038;-88
2022/01/28 10:15:18;;;;;;;25.23;4.82;;;;;;;;;;5006540;28;20362;-90
2022/01/28 10:17:58;;;;;;;30.27;5.05;;;;;;;;;;5002440;28;20047;-88
2022/01/28 10:20:25;;;;;;;29.08;4.65;;;;;;;;;;4989114;28;20607;-84
2022/01/28 10:22:52;;;;;;;37.78;4.70;;;;;;;;;;5001164;28;20081;-86
2022/01/28 10:25:38;;;;;;;36.72;5.43;;;;;;;;;;4989924;28;20037;-85
2022/01/28 10:28:14;;;;;;;29.35;3.92;;;;;;;;;;5004366;28;20061;-85
2022/01/28 10:30:41;;;;;;;25.55;4.82;;;;;;;;;;5006962;28;20169;-83
2022/01/28 10:33:16;;;;;;;42.80;5.45;;;;;;;;;;5003971;28;20077;-82
2022/01/28 10:35:51;;;;;;;27.00;4.22;;;;;;;;;;5006367;28;20057;-82
2022/01/28 10:38:29;;;;;;;37.72;4.22;;;;;;;;;;5010351;28;20049;-81
2022/01/28 10:41:07;;;;;;;28.40;4.18;;;;;;;;;;4974806;28;20052;-84
2022/01/28 10:43:41;;;;;;;28.05;3.63;;;;;;;;;;5009016;28;20038;-84
2022/01/28 10:46:07;;;;;;;31.15;5.05;;;;;;;;;;5005893;28;20045;-82
2022/01/28 10:48:47;;;;;;;34.00;4.70;;;;;;;;;;5007949;28;20046;-87
2022/01/28 10:51:20;;;;;;;30.00;4.22;;;;;;;;;;5006130;28;20046;-82
2022/01/28 10:54:05;;;;;;;27.67;4.10;;;;;;;;;;4985697;28;20053;-82
2022/01/28 10:56:55;;;;;;;27.75;4.47;;;;;;;;;;5007302;28;20045;-82
2022/01/28 10:59:32;;;;;;;30.80;4.82;;;;;;;;;;5003139;28;20101;-90
2022/01/28 11:01:58;;;;;;;24.98;4.05;;;;;;;;;;5007245;28;20516;-82
2022/01/28 11:04:25;;;;;;;23.95;4.20;;;;;;;;;;5005458;28;20058;-82
2022/01/28 11:06:52;;;;;;;28.80;5.53;;;;;;;;;;5005867;28;20042;-86
2022/01/28 11:09:20;;;;;;;29.65;4.22;;;;;;;;;;4989858;28;20457;-82
2022/01/28 11:11:47;;;;;;;22.80;3.60;;;;;;;;;;4988738;28;20117;-83
2022/01/28 11:14:14;;;;;;;20.52;3.83;;;;;;;;;;5007570;28;20045;-82
2022/01/28 11:16:40;;;;;;;21.10;3.17;;;;;;;;;;4989617;28;20046;-82
2022/01/28 11:19:09;;;;;;;29.23;4.75;;;;;;;;;;5007950;28;20046;-82
2022/01/28 11:21:48;;;;;;;20.77;3.63;;;;;;;;;;4995519;28;20046;-91
2022/01/28 11:24:29;;;;;;;19.90;3.47;;;;;;;;;;4977273;28;20057;-85
2022/01/28 11:27:06;;;;;;;32.13;4.55;;;;;;;;;;4980604;28;20041;-82
2022/01/28 11:29:32;;;;;;;18.50;3.42;;;;;;;;;;5021702;28;20091;-83
2022/01/28 11:31:59;;;;;;;21.10;3.42;;;;;;;;;;5026173;28;20133;-86
2022/01/28 11:34:25;;;;;;;23.50;4.07;;;;;;;;;;5004246;28;20494;-83
2022/01/28 11:36:52;;;;;;;22.67;3.78;;;;;;;;;;4993958;28;20034;-82
2022/01/28 11:39:28;;;;;;;24.88;3.67;;;;;;;;;;5008368;28;20068;-84
2022/01/28 11:42:13;;;;;;;25.48;4.32;;;;;;;;;;5006037;28;20048;-83
2022/01/28 11:44:40;;;;;;;29.83;4.50;;;;;;;;;;4990331;28;20493;-82
2022/01/28 11:47:08;;;;;;;30.02;4.53;;;;;;;;;;4989568;28;20070;-83
2022/01/28 11:49:52;;;;;;;26.05;4.22;;;;;;;;;;5006717;28;20042;-86
2022/01/28 11:52:22;;;;;;;29.33;3.47;;;;;;;;;;5008260;28;20497;-81
2022/01/28 11:54:48;;;;;;;26.50;3.63;;;;;;;;;;4986606;28;20038;-82
2022/01/28 11:57:16;;;;;;;22.05;3.47;;;;;;;;;;4974236;28;20088;-83
2022/01/28 11:59:42;;;;;;;25.70;3.50;;;;;;;;;;4988973;28;20473;-83
2022/01/28 12:02:10;;;;;;;28.50;3.63;;;;;;;;;;4974243;28;20042;-84
2022/01/28 12:04:36;;;;;;;27.30;4.07;;;;;;;;;;4972662;28;20049;-83
2022/01/28 12:07:02;;;;;;;26.58;4.30;;;;;;;;;;5007691;28;20038;-83
2022/01/28 12:09:32;;;;;;;21.80;3.45;;;;;;;;;;4973686;28;20077;-87
2022/01/28 12:11:59;;;;;;;25.85;3.63;;;;;;;;;;4972169;28;20050;-85
2022/01/28 12:14:44;;;;;;;24.45;3.40;;;;;;;;;;4975193;28;20655;-86
2022/01/28 12:17:29;;;;;;;20.63;3.20;;;;;;;;;;4969019;28;20058;-82
2022/01/28 12:20:15;;;;;;;29.27;4.07;;;;;;;;;;4988666;28;20050;-84
2022/01/28 12:23:02;;;;;;;20.55;4.50;;;;;;;;;;4992119;28;20054;-85
2022/01/28 12:25:41;;;;;;;20.35;4.10;;;;;;;;;;4973066;28;20050;-84
2022/01/28 12:28:15;;;;;;;24.60;3.45;;;;;;;;;;4974760;28;20062;-89
2022/01/28 12:30:52;;;;;;;23.23;3.88;;;;;;;;;;4985938;28;20038;-87
2022/01/28 12:33:22;;;;;;;21.67;3.63;;;;;;;;;;4991788;28;20050;-84
2022/01/28 12:35:51;;;;;;;22.80;4.22;;;;;;;;;;4990655;28;20042;-85
2022/01/28 12:38:24;;;;;;;30.60;5.10;;;;;;;;;;4994575;28;20045;-84
2022/01/28 12:40:54;;;;;;;26.73;4.50;;;;;;;;;;4992616;28;20061;-86
2022/01/28 12:43:22;;;;;;;27.17;3.90;;;;;;;;;;4972731;28;20051;-90
2022/01/28 12:45:56;;;;;;;19.30;3.97;;;;;;;;;;4992391;28;20054;-85
2022/01/28 12:48:22;;;;;;;28.95;4.25;;;;;;;;;;4986836;28;20050;-82
2022/01/28 12:50:52;;;;;;;22.15;3.88;;;;;;;;;;4980925;28;20114;-84
2022/01/28 12:53:31;;;;;;;28.73;4.50;;;;;;;;;;4970434;28;20154;-89
2022/01/28 12:55:59;;;;;;;20.58;3.80;;;;;;;;;;4969881;28;20045;-88
2022/01/28 12:58:32;;;;;;;26.08;4.57;;;;;;;;;;4973982;28;20058;-85
2022/01/28 13:01:12;;;;;;;38.15;5.43;;;;;;;;;;4988996;28;20057;-88
2022/01/28 13:03:47;;;;;;;20.23;3.75;;;;;;;;;;4989947;28;20054;-88
2022/01/28 13:06:22;;;;;;;23.10;3.97;;;;;;;;;;4989388;28;20046;-85
2022/01/28 13:08:49;;;;;;;25.08;4.00;;;;;;;;;;4990040;28;20274;-85
2022/01/28 13:11:15;;;;;;;21.58;3.78;;;;;;;;;;4992204;28;20046;-79
2022/01/28 13:13:55;;;;;;;26.00;3.80;;;;;;;;;;4991397;28;20080;-85
2022/01/28 13:16:35;;;;;;;31.95;3.78;;;;;;;;;;4986343;28;20151;-85
2022/01/28 13:19:03;;;;;;;21.50;3.40;;;;;;;;;;4970440;28;20125;-85
2022/01/28 13:21:30;;;;;;;24.05;3.92;;;;;;;;;;4971177;28;20043;-86
2022/01/28 13:24:16;;;;;;;33.20;3.97;;;;;;;;;;4970778;28;20576;-85
2022/01/28 13:27:01;;;;;;;32.92;3.67;;;;;;;;;;4984815;28;20076;-81
2022/01/28 13:29:33;;;;;;;27.17;3.55;;;;;;;;;;4991185;28;20042;-87
2022/01/28 13:32:04;;;;;;;16.33;2.97;;;;;;;;;;4988362;28;20137;-81
2022/01/28 13:34:42;;;;;;;25.10;4.22;;;;;;;;;;4994391;28;20057;-83
2022/01/28 13:37:08;;;;;;;26.38;3.83;;;;;;;;;;5001717;28;20115;-84
2022/01/28 13:39:41;;;;;;;23.05;3.80;;;;;;;;;;5001216;28;20049;-82
2022/01/28 13:42:08;;;;;;;19.98;3.85;;;;;;;;;;4995124;28;20046;-87
2022/01/28 13:44:37;;;;;;;28.70;4.82;;;;;;;;;;4990049;28;20046;-82
2022/01/28 13:47:06;;;;;;;26.85;3.70;;;;;;;;;;4973164;28;20054;-81
2022/01/28 13:49:33;;;;;;;28.23;3.90;;;;;;;;;;4989492;28;20046;-81
2022/01/28 13:52:07;;;;;;;24.58;4.10;;;;;;;;;;5004425;28;20089;-82
2022/01/28 13:54:33;;;;;;;46.65;7.55;;;;;;;;;;4989301;28;20137;-82
2022/01/28 13:57:04;;;;;;;22.17;4.60;;;;;;;;;;4987547;28;20149;-82
2022/01/28 13:59:32;;;;;;;30.25;4.10;;;;;;;;;;4990250;28;20081;-80
2022/01/28 14:02:01;;;;;;;20.48;3.78;;;;;;;;;;4988487;28;20475;-83
2022/01/28 14:04:36;;;;;;;22.20;3.83;;;;;;;;;;4988868;28;20042;-84
2022/01/28 14:10:23;;;;;;;24.52;3.58;;;;;;;;;;4974921;28;20417;-83
2022/01/28 14:12:53;;;;;;;26.83;3.67;;;;;;;;;;4990296;28;20851;-83
2022/01/28 14:15:49;;;;;;;16.75;2.63;;;;;;;;;;4974899;28;20047;-84
2022/01/28 14:18:21;;;;;;;21.67;3.22;;;;;;;;;;4991499;28;20054;-82
2022/01/28 14:20:47;;;;;;;17.23;3.38;;;;;;;;;;5016911;28;20474;-84
2022/01/28 14:23:14;;;;;;;26.95;4.68;;;;;;;;;;4994508;28;20081;-86
2022/01/28 14:45:16;;;;;;;17.75;2.83;;;;;;;;;;5026127;28;20112;-93
2022/01/28 15:18:14;;;;;;;18.13;3.65;;;;;;;;;;5229249;23;20061;-92
2022/01/28 15:21:10;;;;;;;23.05;3.13;;;;;;;;;;5002406;28;20489;-92
2022/01/28 15:27:45;;;;;;;;;;;;;;;;;;;;;
2022/01/28 15:36:44;;;;;;;20.88;3.53;;;;;;;;;;4985324;28;20914;-94
2022/01/28 15:39:34;;;;;;;22.40;3.25;;;;;;;;;;4985149;28;20082;-92
2022/01/28 16:33:39;;;;;;;20.38;4.50;;;;;;;;;;5688453;23;20061;-92
2022/01/28 16:40:39;;;;;;;30.50;3.63;;;;;;;;;;4979546;28;20097;-93
2022/01/28 16:46:22;;;;;;;22.92;4.53;;;;;;;;;;4991154;23;20096;-92
2022/01/28 16:48:50;;;;;;;24.65;4.68;;;;;;;;;;4956248;28;20877;-93
2022/01/28 16:51:20;;;;;;;16.23;3.03;;;;;;;;;;4927932;28;20066;-94
2022/01/28 17:23:01;;;;;;;17.48;3.38;;;;;;;;;;5322178;23;20074;-94
2022/01/28 17:25:53;;;;;;;21.80;3.03;;;;;;;;;;4962307;23;20065;-92
2022/01/28 17:28:20;;;;;;;16.13;3.42;;;;;;;;;;5111525;23;20111;-92
2022/01/28 17:30:46;;;;;;;18.13;2.83;;;;;;;;;;4980279;23;20444;-93
2022/01/28 17:36:55;;;;;;;27.88;4.63;;;;;;;;;;4987092;23;20058;-93
2022/01/28 18:13:02;;;;;;;;;;;;;;;;;;;;;
2022/01/28 18:16:18;;;;;;;14.52;2.35;;;;;;;;;;4951947;28;20137;-93
2022/01/28 19:47:34;;;;;;;18.13;6.68;;;;;;;;;;5267740;23;20121;-93
2022/01/28 21:43:34;;;;;;;44.55;20.08;;;;;;;;;;5010283;23;20117;-94
2022/01/28 21:46:07;;;;;;;38.78;18.85;;;;;;;;;;4922283;28;20050;-94
2022/01/28 21:52:16;;;;;;;35.80;17.50;;;;;;;;;;4955093;29;20058;-94
2022/01/28 22:01:21;;;;;;;29.25;15.82;;;;;;;;;;4967273;23;20119;-93
2022/01/28 22:09:07;;;;;;;41.10;17.13;;;;;;;;;;4975662;28;20110;-94
2022/01/28 23:34:50;;;;;;;31.10;12.43;;;;;;;;;;4966426;23;20062;-95
2022/01/28 23:37:30;;;;;;;31.25;17.00;;;;;;;;;;4912394;29;20048;-94
2022/01/28 23:40:10;;;;;;;36.03;16.42;;;;;;;;;;4937524;29;20050;-95
2022/01/28 23:46:54;;;;;;;43.65;16.27;;;;;;;;;;4964308;23;20035;-94
2022/01/28 23:49:51;;;;;;;33.20;14.75;;;6.90;99.90;;;;;;4905215;29;20047;-91
2022/01/28 23:52:18;;;;;;;35.67;15.63;;;;;;;;;;4942599;29;20051;-95
2022/01/28 23:55:18;;;;;;;41.67;16.40;;;7.00;99.90;;;;;;4907782;29;20075;-94
2022/01/28 23:57:50;;;;;;;42.45;17.67;;;;;;;;;;4889234;29;20064;-92
